Whitwell, TN

11:56 AM CDT on May 03, 2015 (GMT -0500)
Southend | | Change Station
CLOSE
Current Station
Personal Weather Station
Location: Dunlap, TN
Elevation: 908 ft
Nearby Weather Stations

Elev 908 ft 35.30 °N, 85.43 °W | Updated 1 minute ago

Partly Cloudy
Partly Cloudy
77.0 °F
Feels Like 78 °F
N
2.0
Wind Variable Wind from NW
Gusts 6.0 mph

Today
High -- | Low -- °F
--% Chance of Precip.
Yesterday
High -- | Low -- °F
Precip. -- in
5:48 AM 7:29 PM
Full, 100% visible
Pressure 30.17 in
Visibility 10.0 miles
Clouds Scattered Clouds 4100 ft
Heat Index 78 °F
Dew Point 54 °F
Humidity 45%
Rainfall 0.00 in
Snow Depth Not available.
UV 8 out of 12
Pollen 8.40 out of 12
Air Quality Not available.
Flu Activity Sporadic
METAR KCHA 031553Z 00000KT 10SM SCT041 23/12 A3019 RMK AO2 SLP216 T02330117

More Conditions Fewer Conditions

Pressure 30.17 in
Visibility 10.0 miles
Clouds Scattered Clouds 4100 ft
Heat Index 78 °F
Dew Point 54 °F
Humidity 45%
Rainfall 0.00 in
Snow Depth Not available.
UV 8 out of 12
Pollen 8.40 out of 12
Air Quality Not available.
Flu Activity Sporadic
METAR KCHA 031553Z 00000KT 10SM SCT041 23/12 A3019 RMK AO2 SLP216 T02330117

More Conditions Fewer Conditions

Nepal has a long way to go to dig out and rebuild from a devastating earthquake. We have teamed up with several charities and organizations to make contributing to the relief effort as easy as possible.
How you can help: Portlight Strategies | Red Cross

10-Day Weather Forecast

Almanac

Astronomy

May. 03, 2015 Rise Set
Actual Time
Civil Twilight
Nautical Twilight
Astronomical Twilight
Moon
Length of Visible Light
Length of Day
Tomorrow will be .
, % of the Moon is Illuminated

Today's Extremes

State Highs State Lows

Community

WunderPhotos

Upload Photos

1,818,274 photos uploaded!

WunderBlogs® & News

Nearby

Air Quality

  Air Quality AQ Index Pollutant
Not available.

Snow Depth

Station Depth Elevation

Earthquake Activity

City Distance Mag. Time & Date
Minimum magnitude displayed is 2.5.

Coastal Water Temperatures

Place Temperature

Stations

Nearby Weather Stations

Station Location Temp. Windchill Dew Point Humidity Wind Precip. Elev Updated Type